Flight Track Log - Related Links

Times and Time Zones

All times are in EDT time to prevent confusion due to time zone crossing. See the RPA3424 flight status page for this flight to view local times or setup timezone preferences in your user account.

Time Position Orientation Groundspeed Altitude Reporting Facility
EDT Latitude Longitude Course Direction KTS MPH feet Rate Location/Type
Mon 06:23:08 PM 40.5542 -80.2981 84° East 213 245 4,700  Level Cleveland Center
Mon 06:24:10 PM 40.5936 -80.2314 52° Northeast 271 312 7,900 3,194 Climbing Cleveland Center
Mon 06:25:00 PM 40.5230 -79.7857 84° East  Level Estimated
Mon 06:25:12 PM 40.6031 -80.1250 83° East 293 337 11,300  Level Cleveland Center
Mon 06:26:00 PM 40.5307 -79.6739 81° East  Level Estimated
Mon 06:26:15 PM 40.6119 -80.0097 84° East 314 361 13,900  Level Cleveland Center
Mon 06:27:00 PM 40.5382 -79.5621 75° East  Level Estimated
Mon 06:27:17 PM 40.6233 -79.8711 84° East 380 437 14,000  Level Cleveland Center
Mon 06:28:00 PM 40.5463 -79.4386 84° East  Level Estimated
Mon 06:28:19 PM 40.6361 -79.7044 84° East 382 440 17,500  Level Cleveland Center
Mon 06:29:21 PM 40.6461 -79.5703 84° East 371 427 20,500 2,516 Climbing Cleveland Center
Mon 06:30:23 PM 40.6564 -79.4339 84° East 371 427 22,700 1,935 Climbing Cleveland Center
Mon 06:31:25 PM 40.6675 -79.2906 84° East 390 449 24,500 1,258 Climbing Cleveland Center
Mon 06:32:27 PM 40.6783 -79.1411 84° East 406 467 25,300 1,210 Climbing Cleveland Center
Mon 06:33:29 PM 40.6892 -78.9931 84° East 408 470 27,000 823 Climbing Cleveland Center
Mon 06:34:31 PM 40.7008 -78.8292 85° East 406 467 27,000  Level Cleveland Center
Mon 06:35:33 PM 40.7108 -78.6811 85° East 408 470 27,000  Level Cleveland Center
Mon 06:36:36 PM 40.7236 -78.5044 84° East 409 471 27,000  Level Cleveland Center
Mon 06:37:38 PM 40.7336 -78.3572 85° East 410 472 27,000  Level Cleveland Center
Mon 06:38:40 PM 40.7892 -78.2297 60° Northeast 412 474 27,000  Level Cleveland Center
Mon 06:39:42 PM 40.8539 -78.1078 55° Northeast 412 474 27,000  Level Cleveland Center
Mon 06:40:44 PM 40.9189 -77.9531 61° Northeast 413 475 27,000  Level Cleveland Center
Mon 06:41:46 PM 40.9325 -77.8036 83° East 415 478 27,000  Level Cleveland Center
Mon 06:42:48 PM 40.9447 -77.6544 84° East 414 476 27,000  Level Cleveland Center
Mon 06:43:50 PM 40.9569 -77.5036 84° East 414 476 27,000  Level Cleveland Center
Mon 06:44:52 PM 40.9697 -77.3531 84° East 414 476 27,000  Level Cleveland Center
Mon 06:45:55 PM 40.9653 -77.1708 92° East 414 476 27,000  Level Cleveland Center
Mon 06:46:57 PM 40.9586 -77.0194 93° East 415 478 27,000 -97 Level Cleveland Center
Mon 06:47:59 PM 40.9517 -76.8683 93° East 415 478 26,800 -1,113 Descending Cleveland Center
Mon 06:49:01 PM 40.9439 -76.7169 94° East 415 478 24,700 -2,045 Descending Cleveland Center
Mon 06:50:11 PM 40.9311 -76.5444 96° East 412 474 22,300 -2,061 Descending New York Center
Mon 06:51:12 PM 40.9236 -76.3956 94° East 407 468 20,200 -2,100 Descending New York Center
Mon 06:52:11 PM 40.9175 -76.2578 93° East 390 449 18,100 -1,100 Descending New York Center
Mon 06:53:12 PM 40.8889 -76.1125 105° East 368 423 18,000 -900 Descending New York Center
Mon 06:54:11 PM 40.8572 -75.9811 108° East 368 423 16,300 -1,700 Descending New York Center
Mon 06:55:12 PM 40.8308 -75.8694 107° East 368 423 14,600 -1,636 Descending New York Center
Mon 06:56:12 PM 40.7986 -75.7464 109° East 363 418 13,000 -814 Descending New York Center
Mon 06:57:10 PM 40.7664 -75.6153 108° East 351 404 13,000  Level New York Center
Mon 06:58:12 PM 40.7397 -75.5039 108° East 351 404 13,000  Level New York Center
Mon 06:59:11 PM 40.7131 -75.3842 106° East 351 404 13,000 -454 Level New York Center
Mon 07:00:11 PM 40.6886 -75.2622 105° East 351 404 12,100 -1,000 Descending New York Center
Mon 07:01:11 PM 40.6558 -75.1369 109° East 340 391 11,000 -1,041 Descending New York Center
Mon 07:02:12 PM 40.5944 -75.0483 132° Southeast 324 373 10,000 -496 Descending New York Center
Mon 07:03:12 PM 40.5542 -74.9556 120° Southeast 324 373 10,000  Level New York Center
Mon 07:04:10 PM 40.5189 -74.8333 111° Southeast 324 373 10,000  Level New York Center
Mon 07:05:11 PM 40.4828 -74.7247 114° Southeast 324 373 10,000  Level New York Center
Mon 07:06:12 PM 40.4469 -74.6164 113° Southeast 324 373 10,000 -183 Level New York Center
Mon 07:07:22 PM 40.4500 -74.4833 88° East 308 354 9,600 -1,062 Descending New York TRACON
Mon 07:08:22 PM 40.4667 -74.3667 79° East 293 337 7,700 -1,300 Descending New York TRACON
Mon 07:09:22 PM 40.5000 -74.2833 62° Northeast 281 323 7,000 -500 Descending New York TRACON
Mon 07:10:22 PM 40.5333 -74.1833 66° East 283 326 6,700 -950 Descending New York TRACON
Mon 07:11:22 PM 40.5667 -74.1000 62° Northeast 275 316 5,100 -959 Descending New York TRACON
Mon 07:13:11 PM 40.6853 -74.0331 23° Northeast 256 295 4,000 -388 Descending New York Center
Mon 07:14:12 PM 40.7464 -74.0142 13° North 237 273 4,000  Level New York Center
Mon 07:15:11 PM 40.8056 -73.9814 23° Northeast 227 261 4,000 -462 Level New York Center
Mon 07:16:22 PM 40.8667 -73.9167 39° Northeast 231 266 3,000 -406 Descending New York TRACON
Mon 07:19:22 PM 40.9167 -73.8000 114° Southeast 187 215 2,300 -400 Descending New York TRACON
Mon 07:21:22 PM 40.8333 -73.8333 197° South 148 170 1,000 -667 Descending New York TRACON
Mon 07:22:22 PM 40.8000 -73.8667 217° Southwest 120 138 300 -700 Descending New York TRACON

Login

Don't have an account? Register now (free) for customized features, flight alerts, and more!